Delta Billie — WDE8059 — position and weather

sailwx.info

Track history (hours):
 
Tides and Currents Weather Stations Pressure Air Temp Water Temp Dewpoint Dewpoint Depression Visibility Wind Speed Wind Dir Waves Ship Positions

Delta Billie

Owner: Baydelta Maritime, San Francicso, CA. More information available from US FCC via Universal Licensing System and Coast Guard Vessel Documentation Center.

Last reported at 2015-Mar-05 05:33 UTC. Time now 2015-Mar-05 06:37 UTC.
Position N 37°56' W 122°25'.

Length 30 m; draft 5.5 m.

Type: Towing. MMSI: 367401030.

Date/timePositionNaut miles runAvg speedWind from/ knotsBaromVisibWave heightAir tempDewpointWater temp
2015-Mar-05 05:33N 37°56' W 122°25'4 4.3
2015-Mar-05 04:33N 37°51' W 122°24'4 4.5
2015-Mar-05 03:33N 37°49' W 122°20'0 0.2
2015-Mar-05 02:33N 37°49' W 122°20'3 3.2
2015-Mar-05 01:33N 37°48' W 122°24'1 1.5
2015-Mar-05 00:33N 37°47' W 122°22'1 1.0
2015-Mar-04 23:34N 37°48' W 122°22'5 5.4
2015-Mar-04 22:33N 37°49' W 122°29'2 1.8
2015-Mar-04 21:33N 37°49' W 122°31'6 6.0
2015-Mar-04 20:33N 37°48' W 122°24'0 0.0
2015-Mar-04 19:33N 37°48' W 122°24'4 3.6
2015-Mar-04 18:33N 37°52' W 122°25'4 3.8
2015-Mar-04 17:33N 37°55' W 122°25'1 0.8
2015-Mar-04 16:33N 37°56' W 122°26'9 8.2
2015-Mar-04 15:29N 38°03' W 122°19'8 0.9
2015-Mar-04 06:33N 38°02' W 122°09'1 0.4
2015-Mar-04 04:17N 38°02' W 122°10'4 0.6
2015-Mar-03 22:05N 38°03' W 122°15'3 0.4
2015-Mar-03 16:05N 38°03' W 122°11'3 0.2
2015-Mar-03 04:22N 38°03' W 122°15'0 0.1
2015-Mar-03 03:03N 38°04' W 122°15'3 5.2
2015-Mar-03 02:32N 38°03' W 122°18'1010.1
2015-Mar-03 01:31N 37°55' W 122°25'7 5.9
2015-Mar-03 00:22N 37°48' W 122°24'0 0.0
2015-Mar-02 23:33N 37°48' W 122°24'0 0.0
2015-Mar-02 22:33N 37°48' W 122°24'0 0.0
2015-Mar-02 21:33N 37°48' W 122°24'0 0.0
2015-Mar-02 20:33N 37°48' W 122°24'0 0.0
2015-Mar-02 19:33N 37°48' W 122°24'0 0.0
2015-Mar-02 18:33N 37°48' W 122°24'0 0.0
2015-Mar-02 17:33N 37°48' W 122°24'0 0.0
2015-Mar-02 16:33N 37°48' W 122°24'4 3.6
2015-Mar-02 15:33N 37°52' W 122°24'3 3.3
2015-Mar-02 14:30N 37°55' W 122°25'2 1.7
2015-Mar-02 13:33N 37°54' W 122°25'6 5.5
2015-Mar-02 12:32N 37°48' W 122°24'0 0.0
2015-Mar-02 11:31N 37°48' W 122°24'2 1.6
2015-Mar-02 10:33N 37°48' W 122°22'2 2.1
2015-Mar-02 09:32N 37°48' W 122°19'4 3.7
2015-Mar-02 08:33N 37°48' W 122°24'2 2.2
2015-Mar-02 07:34N 37°48' W 122°21'2 1.6
2015-Mar-02 06:33N 37°48' W 122°19'4 3.6
2015-Mar-02 05:32N 37°48' W 122°24'0 0.0
2015-Mar-02 04:33N 37°48' W 122°24'0 0.0
2015-Mar-02 03:32N 37°48' W 122°24'0 0.0
2015-Mar-02 02:33N 37°48' W 122°24'0 0.0
2015-Mar-02 01:33N 37°48' W 122°24'4 3.6
2015-Mar-02 00:33N 37°49' W 122°19'1 1.1
2015-Mar-01 23:33N 37°49' W 122°21'7 6.6
2015-Mar-01 22:33N 37°54' W 122°24'2 2.0
2015-Mar-01 21:33N 37°55' W 122°22'0 0.0
2015-Mar-01 20:33N 37°55' W 122°22'1 0.5
2015-Mar-01 19:33N 37°54' W 122°22'2 2.4
2015-Mar-01 18:33N 37°55' W 122°25'0 0.0
2015-Mar-01 17:31N 37°55' W 122°25'0 0.0
2015-Mar-01 16:27N 37°55' W 122°25'0 0.0
2015-Mar-01 15:31N 37°55' W 122°25'0 0.3
2015-Mar-01 14:30N 37°55' W 122°25'3 2.9
2015-Mar-01 13:33N 37°53' W 122°25'5 4.6
2015-Mar-01 12:33N 37°48' W 122°24'0 0.0
2015-Mar-01 11:33N 37°48' W 122°24'0 0.1
2015-Mar-01 10:33N 37°48' W 122°24'5 4.6
2015-Mar-01 09:33N 37°48' W 122°18'3 2.9
2015-Mar-01 08:33N 37°48' W 122°22'2 1.7
2015-Mar-01 07:33N 37°48' W 122°24'0 0.0
2015-Mar-01 06:32N 37°48' W 122°24'0 0.0
2015-Mar-01 05:32N 37°48' W 122°24'0 0.0
2015-Mar-01 04:29N 37°48' W 122°24'0 0.0
2015-Mar-01 03:33N 37°48' W 122°24'0 0.0
2015-Mar-01 02:33N 37°48' W 122°24'0 0.0
2015-Mar-01 01:32N 37°48' W 122°24'0 0.0
2015-Mar-01 00:29N 37°48' W 122°24'0 0.0
2015-Feb-28 23:33N 37°48' W 122°24'0 0.0
2015-Feb-28 22:33N 37°48' W 122°24'0 0.0
2015-Feb-28 21:30N 37°48' W 122°24'0 0.0
2015-Feb-28 20:33N 37°48' W 122°24'0 0.0
2015-Feb-28 19:31N 37°48' W 122°24'0 0.0
2015-Feb-28 18:32N 37°48' W 122°24'0 0.0
2015-Feb-28 17:33N 37°48' W 122°24'4 4.4
2015-Feb-28 16:33N 37°48' W 122°18'2 1.9
2015-Feb-28 15:33N 37°48' W 122°21'3 2.5
2015-Feb-28 14:33N 37°48' W 122°24'0 0.0
2015-Feb-28 13:33N 37°48' W 122°24'0 0.0
2015-Feb-28 12:20N 37°48' W 122°24'0 0.0
2015-Feb-28 11:33N 37°48' W 122°24'0 0.0
2015-Feb-28 10:33N 37°48' W 122°24'4 4.0
2015-Feb-28 09:33N 37°52' W 122°24'9 9.3
2015-Feb-28 08:33N 38°01' W 122°23'9 8.5
2015-Feb-28 07:26N 38°03' W 122°11'0 0.2
2015-Feb-28 05:32N 38°03' W 122°11'9 9.2
2015-Feb-28 04:33N 38°02' W 122°22'9 9.4
2015-Feb-28 03:33N 37°53' W 122°25'6 6.0
2015-Feb-28 02:33N 37°49' W 122°31'6 5.7
2015-Feb-28 01:34N 37°49' W 122°24'1 0.5
2015-Feb-28 00:33N 37°48' W 122°24'3 3.1
2015-Feb-27 23:33N 37°49' W 122°20'2 2.0
2015-Feb-27 22:34N 37°47' W 122°21'2 2.4
2015-Feb-27 21:33N 37°49' W 122°23'1110.9
2015-Feb-27 20:34N 37°60' W 122°25'9 1.1
2015-Feb-27 12:33N 38°04' W 122°15'0 0.4
2015-Feb-27 11:34N 38°04' W 122°14'5 0.3
2015-Feb-26 17:24N 38°02' W 122°07'1 0.2
2015-Feb-26 12:32N 38°03' W 122°06'1 0.9
2015-Feb-26 11:07N 38°02' W 122°08'2 1.7
2015-Feb-26 10:13N 38°02' W 122°10'1 1.5
2015-Feb-26 09:34N 38°02' W 122°08'1 0.1
2015-Feb-26 05:34N 38°02' W 122°08'4 4.0
2015-Feb-26 04:33N 38°04' W 122°13'9 8.6
2015-Feb-26 03:33N 38°01' W 122°23'8 8.3
2015-Feb-26 02:33N 37°53' W 122°26'6 6.2
2015-Feb-26 01:34N 37°48' W 122°30'1 0.9
2015-Feb-26 00:33N 37°49' W 122°30'6 5.6
2015-Feb-25 23:34N 37°54' W 122°26'2 2.1
2015-Feb-25 22:34N 37°56' W 122°25'4 3.7
2015-Feb-25 21:33N 37°52' W 122°24'4 3.7
2015-Feb-25 20:34N 37°48' W 122°24'0 0.0
2015-Feb-25 19:33N 37°48' W 122°24'0 0.0
2015-Feb-25 18:33N 37°48' W 122°24'0 0.0
2015-Feb-25 17:33N 37°48' W 122°24'0 0.0
2015-Feb-25 16:33N 37°48' W 122°24'0 0.0
2015-Feb-25 15:34N 37°48' W 122°24'0 0.0
2015-Feb-25 14:34N 37°48' W 122°24'0 0.0
2015-Feb-25 13:33N 37°48' W 122°24'0 0.0
2015-Feb-25 12:34N 37°48' W 122°24'0 0.0
2015-Feb-25 11:33N 37°48' W 122°24'0 0.0
2015-Feb-25 10:34N 37°48' W 122°24'0 0.0
2015-Feb-25 09:34N 37°48' W 122°24'0 0.2
2015-Feb-25 08:33N 37°48' W 122°24'7 7.3
2015-Feb-25 07:34N 37°56' W 122°25'4 4.3
2015-Feb-25 06:34N 37°60' W 122°25'1110.5
2015-Feb-25 05:33N 38°03' W 122°12'3 3.1
2015-Feb-25 04:33N 38°02' W 122°08'0 0.0
2015-Feb-25 03:27N 38°02' W 122°08'0 0.0
2015-Feb-25 02:09N 38°02' W 122°08'0 0.3
2015-Feb-25 01:22N 38°03' W 122°08'2 1.5
2015-Feb-25 00:08N 38°03' W 122°10'6 9.4
2015-Feb-24 23:30N 38°03' W 122°18'9 9.5
2015-Feb-24 22:34N 37°57' W 122°26'9 8.8
2015-Feb-24 21:34N 37°48' W 122°24'0 0.0
2015-Feb-24 20:33N 37°48' W 122°24'0 0.0
2015-Feb-24 19:33N 37°48' W 122°24'0 0.0
2015-Feb-24 18:34N 37°48' W 122°24'0 0.0
2015-Feb-24 17:34N 37°48' W 122°24'2 1.8
2015-Feb-24 16:34N 37°50' W 122°24'6 5.7
2015-Feb-24 15:34N 37°56' W 122°25'4 3.6
2015-Feb-24 14:33N 37°52' W 122°25'10 9.7
2015-Feb-24 13:33N 38°01' W 122°22'6 6.3
2015-Feb-24 12:32N 38°03' W 122°15'0 0.0
2015-Feb-24 11:32N 38°03' W 122°15'0 0.0
2015-Feb-24 10:33N 38°03' W 122°15'2 0.6
2015-Feb-24 06:25N 38°03' W 122°18'7 8.6
2015-Feb-24 05:34N 37°59' W 122°25'5 5.3
2015-Feb-24 04:34N 37°55' W 122°22'0 0.1
2015-Feb-24 03:34N 37°55' W 122°22'5 4.7
2015-Feb-24 02:33N 37°58' W 122°26'11 9.5
2015-Feb-24 01:22N 38°04' W 122°14'2 0.1
2015-Feb-23 11:21N 38°04' W 122°16'2 1.6
2015-Feb-23 10:23N 38°04' W 122°14'  
Track history (hours):
 
Tides and Currents Weather Stations Pressure Air Temp Water Temp Dewpoint Dewpoint Depression Visibility Wind Speed Wind Dir Waves Ship Positions

Delta Billie

Owner: Baydelta Maritime, San Francicso, CA. More information available from US FCC via Universal Licensing System and Coast Guard Vessel Documentation Center.

Last reported at 2015-Mar-05 05:33 UTC. Time now 2015-Mar-05 06:37 UTC.
Position N 37°56' W 122°25'.

Length 30 m; draft 5.5 m.

Type: Towing. MMSI: 367401030.

Date/timePositionNaut miles runAvg speedWind from/ knotsBaromVisibWave heightAir tempDewpointWater temp
2015-Mar-05 05:33N 37°56' W 122°25'4 4.3
2015-Mar-05 04:33N 37°51' W 122°24'4 4.5
2015-Mar-05 03:33N 37°49' W 122°20'0 0.2
2015-Mar-05 02:33N 37°49' W 122°20'3 3.2
2015-Mar-05 01:33N 37°48' W 122°24'1 1.5
2015-Mar-05 00:33N 37°47' W 122°22'1 1.0
2015-Mar-04 23:34N 37°48' W 122°22'5 5.4
2015-Mar-04 22:33N 37°49' W 122°29'2 1.8
2015-Mar-04 21:33N 37°49' W 122°31'6 6.0
2015-Mar-04 20:33N 37°48' W 122°24'0 0.0
2015-Mar-04 19:33N 37°48' W 122°24'4 3.6
2015-Mar-04 18:33N 37°52' W 122°25'4 3.8
2015-Mar-04 17:33N 37°55' W 122°25'1 0.8
2015-Mar-04 16:33N 37°56' W 122°26'9 8.2
2015-Mar-04 15:29N 38°03' W 122°19'8 0.9
2015-Mar-04 06:33N 38°02' W 122°09'1 0.4
2015-Mar-04 04:17N 38°02' W 122°10'4 0.6
2015-Mar-03 22:05N 38°03' W 122°15'3 0.4
2015-Mar-03 16:05N 38°03' W 122°11'3 0.2
2015-Mar-03 04:22N 38°03' W 122°15'0 0.1
2015-Mar-03 03:03N 38°04' W 122°15'3 5.2
2015-Mar-03 02:32N 38°03' W 122°18'1010.1
2015-Mar-03 01:31N 37°55' W 122°25'7 5.9
2015-Mar-03 00:22N 37°48' W 122°24'0 0.0
2015-Mar-02 23:33N 37°48' W 122°24'0 0.0
2015-Mar-02 22:33N 37°48' W 122°24'0 0.0
2015-Mar-02 21:33N 37°48' W 122°24'0 0.0
2015-Mar-02 20:33N 37°48' W 122°24'0 0.0
2015-Mar-02 19:33N 37°48' W 122°24'0 0.0
2015-Mar-02 18:33N 37°48' W 122°24'0 0.0
2015-Mar-02 17:33N 37°48' W 122°24'0 0.0
2015-Mar-02 16:33N 37°48' W 122°24'4 3.6
2015-Mar-02 15:33N 37°52' W 122°24'3 3.3
2015-Mar-02 14:30N 37°55' W 122°25'2 1.7
2015-Mar-02 13:33N 37°54' W 122°25'6 5.5
2015-Mar-02 12:32N 37°48' W 122°24'0 0.0
2015-Mar-02 11:31N 37°48' W 122°24'2 1.6
2015-Mar-02 10:33N 37°48' W 122°22'2 2.1
2015-Mar-02 09:32N 37°48' W 122°19'4 3.7
2015-Mar-02 08:33N 37°48' W 122°24'2 2.2
2015-Mar-02 07:34N 37°48' W 122°21'2 1.6
2015-Mar-02 06:33N 37°48' W 122°19'4 3.6
2015-Mar-02 05:32N 37°48' W 122°24'0 0.0
2015-Mar-02 04:33N 37°48' W 122°24'0 0.0
2015-Mar-02 03:32N 37°48' W 122°24'0 0.0
2015-Mar-02 02:33N 37°48' W 122°24'0 0.0
2015-Mar-02 01:33N 37°48' W 122°24'4 3.6
2015-Mar-02 00:33N 37°49' W 122°19'1 1.1
2015-Mar-01 23:33N 37°49' W 122°21'7 6.6
2015-Mar-01 22:33N 37°54' W 122°24'2 2.0
2015-Mar-01 21:33N 37°55' W 122°22'0 0.0
2015-Mar-01 20:33N 37°55' W 122°22'1 0.5
2015-Mar-01 19:33N 37°54' W 122°22'2 2.4
2015-Mar-01 18:33N 37°55' W 122°25'0 0.0
2015-Mar-01 17:31N 37°55' W 122°25'0 0.0
2015-Mar-01 16:27N 37°55' W 122°25'0 0.0
2015-Mar-01 15:31N 37°55' W 122°25'0 0.3
2015-Mar-01 14:30N 37°55' W 122°25'3 2.9
2015-Mar-01 13:33N 37°53' W 122°25'5 4.6
2015-Mar-01 12:33N 37°48' W 122°24'0 0.0
2015-Mar-01 11:33N 37°48' W 122°24'0 0.1
2015-Mar-01 10:33N 37°48' W 122°24'5 4.6
2015-Mar-01 09:33N 37°48' W 122°18'3 2.9
2015-Mar-01 08:33N 37°48' W 122°22'2 1.7
2015-Mar-01 07:33N 37°48' W 122°24'0 0.0
2015-Mar-01 06:32N 37°48' W 122°24'0 0.0
2015-Mar-01 05:32N 37°48' W 122°24'0 0.0
2015-Mar-01 04:29N 37°48' W 122°24'0 0.0
2015-Mar-01 03:33N 37°48' W 122°24'0 0.0
2015-Mar-01 02:33N 37°48' W 122°24'0 0.0
2015-Mar-01 01:32N 37°48' W 122°24'0 0.0
2015-Mar-01 00:29N 37°48' W 122°24'0 0.0
2015-Feb-28 23:33N 37°48' W 122°24'0 0.0
2015-Feb-28 22:33N 37°48' W 122°24'0 0.0
2015-Feb-28 21:30N 37°48' W 122°24'0 0.0
2015-Feb-28 20:33N 37°48' W 122°24'0 0.0
2015-Feb-28 19:31N 37°48' W 122°24'0 0.0
2015-Feb-28 18:32N 37°48' W 122°24'0 0.0
2015-Feb-28 17:33N 37°48' W 122°24'4 4.4
2015-Feb-28 16:33N 37°48' W 122°18'2 1.9
2015-Feb-28 15:33N 37°48' W 122°21'3 2.5
2015-Feb-28 14:33N 37°48' W 122°24'0 0.0
2015-Feb-28 13:33N 37°48' W 122°24'0 0.0
2015-Feb-28 12:20N 37°48' W 122°24'0 0.0
2015-Feb-28 11:33N 37°48' W 122°24'0 0.0
2015-Feb-28 10:33N 37°48' W 122°24'4 4.0
2015-Feb-28 09:33N 37°52' W 122°24'9 9.3
2015-Feb-28 08:33N 38°01' W 122°23'9 8.5
2015-Feb-28 07:26N 38°03' W 122°11'0 0.2
2015-Feb-28 05:32N 38°03' W 122°11'9 9.2
2015-Feb-28 04:33N 38°02' W 122°22'9 9.4
2015-Feb-28 03:33N 37°53' W 122°25'6 6.0
2015-Feb-28 02:33N 37°49' W 122°31'6 5.7
2015-Feb-28 01:34N 37°49' W 122°24'1 0.5
2015-Feb-28 00:33N 37°48' W 122°24'3 3.1
2015-Feb-27 23:33N 37°49' W 122°20'2 2.0
2015-Feb-27 22:34N 37°47' W 122°21'2 2.4
2015-Feb-27 21:33N 37°49' W 122°23'1110.9
2015-Feb-27 20:34N 37°60' W 122°25'9 1.1
2015-Feb-27 12:33N 38°04' W 122°15'0 0.4
2015-Feb-27 11:34N 38°04' W 122°14'5 0.3
2015-Feb-26 17:24N 38°02' W 122°07'1 0.2
2015-Feb-26 12:32N 38°03' W 122°06'1 0.9
2015-Feb-26 11:07N 38°02' W 122°08'2 1.7
2015-Feb-26 10:13N 38°02' W 122°10'1 1.5
2015-Feb-26 09:34N 38°02' W 122°08'1 0.1
2015-Feb-26 05:34N 38°02' W 122°08'4 4.0
2015-Feb-26 04:33N 38°04' W 122°13'9 8.6
2015-Feb-26 03:33N 38°01' W 122°23'8 8.3
2015-Feb-26 02:33N 37°53' W 122°26'6 6.2
2015-Feb-26 01:34N 37°48' W 122°30'1 0.9
2015-Feb-26 00:33N 37°49' W 122°30'6 5.6
2015-Feb-25 23:34N 37°54' W 122°26'2 2.1
2015-Feb-25 22:34N 37°56' W 122°25'4 3.7
2015-Feb-25 21:33N 37°52' W 122°24'4 3.7
2015-Feb-25 20:34N 37°48' W 122°24'0 0.0
2015-Feb-25 19:33N 37°48' W 122°24'0 0.0
2015-Feb-25 18:33N 37°48' W 122°24'0 0.0
2015-Feb-25 17:33N 37°48' W 122°24'0 0.0
2015-Feb-25 16:33N 37°48' W 122°24'0 0.0
2015-Feb-25 15:34N 37°48' W 122°24'0 0.0
2015-Feb-25 14:34N 37°48' W 122°24'0 0.0
2015-Feb-25 13:33N 37°48' W 122°24'0 0.0
2015-Feb-25 12:34N 37°48' W 122°24'0 0.0
2015-Feb-25 11:33N 37°48' W 122°24'0 0.0
2015-Feb-25 10:34N 37°48' W 122°24'0 0.0
2015-Feb-25 09:34N 37°48' W 122°24'0 0.2
2015-Feb-25 08:33N 37°48' W 122°24'7 7.3
2015-Feb-25 07:34N 37°56' W 122°25'4 4.3
2015-Feb-25 06:34N 37°60' W 122°25'1110.5
2015-Feb-25 05:33N 38°03' W 122°12'3 3.1
2015-Feb-25 04:33N 38°02' W 122°08'0 0.0
2015-Feb-25 03:27N 38°02' W 122°08'0 0.0
2015-Feb-25 02:09N 38°02' W 122°08'0 0.3
2015-Feb-25 01:22N 38°03' W 122°08'2 1.5
2015-Feb-25 00:08N 38°03' W 122°10'6 9.4
2015-Feb-24 23:30N 38°03' W 122°18'9 9.5
2015-Feb-24 22:34N 37°57' W 122°26'9 8.8
2015-Feb-24 21:34N 37°48' W 122°24'0 0.0
2015-Feb-24 20:33N 37°48' W 122°24'0 0.0
2015-Feb-24 19:33N 37°48' W 122°24'0 0.0
2015-Feb-24 18:34N 37°48' W 122°24'0 0.0
2015-Feb-24 17:34N 37°48' W 122°24'2 1.8
2015-Feb-24 16:34N 37°50' W 122°24'6 5.7
2015-Feb-24 15:34N 37°56' W 122°25'4 3.6
2015-Feb-24 14:33N 37°52' W 122°25'10 9.7
2015-Feb-24 13:33N 38°01' W 122°22'6 6.3
2015-Feb-24 12:32N 38°03' W 122°15'0 0.0
2015-Feb-24 11:32N 38°03' W 122°15'0 0.0
2015-Feb-24 10:33N 38°03' W 122°15'2 0.6
2015-Feb-24 06:25N 38°03' W 122°18'7 8.6
2015-Feb-24 05:34N 37°59' W 122°25'5 5.3
2015-Feb-24 04:34N 37°55' W 122°22'0 0.1
2015-Feb-24 03:34N 37°55' W 122°22'5 4.7
2015-Feb-24 02:33N 37°58' W 122°26'11 9.5
2015-Feb-24 01:22N 38°04' W 122°14'2 0.1
2015-Feb-23 11:21N 38°04' W 122°16'2 1.6
2015-Feb-23 10:23N 38°04' W 122°14'  

Dump ship's entire track history